createdAt,value
2022-08-04T00:01:51.045Z,51.28
2022-08-04T00:04:28.118Z,54.75
2022-08-04T00:07:05.567Z,62.80
2022-08-04T00:09:42.970Z,54.08
2022-08-04T00:12:14.359Z,55.78
2022-08-04T00:14:49.083Z,53.53
2022-08-04T00:17:22.135Z,65.60
2022-08-04T00:19:55.024Z,57.60
2022-08-04T00:22:29.382Z,57.50
2022-08-04T00:24:58.785Z,54.13
2022-08-04T00:27:30.158Z,53.83
2022-08-04T00:29:58.971Z,59.42
2022-08-04T00:32:34.152Z,66.10
2022-08-04T00:35:04.667Z,47.63
2022-08-04T00:37:35.370Z,57.90
2022-08-04T00:40:12.874Z,62.75
2022-08-04T00:42:58.208Z,57.05
2022-08-04T00:46:11.678Z,57.00
2022-08-04T00:49:01.012Z,65.28
2022-08-04T00:51:45.593Z,59.85
2022-08-04T00:54:27.849Z,55.88
2022-08-04T00:57:28.472Z,64.68
2022-08-04T01:00:12.167Z,55.67
2022-08-04T01:02:51.951Z,64.30
2022-08-04T01:05:28.384Z,59.88
2022-08-04T01:08:21.917Z,59.72
2022-08-04T01:11:04.399Z,65.55
2022-08-04T01:14:01.362Z,64.43
2022-08-04T01:16:33.902Z,57.80
2022-08-04T01:19:05.451Z,63.78
2022-08-04T01:22:09.138Z,68.05
2022-08-04T01:25:02.313Z,70.13
2022-08-04T01:27:51.016Z,64.22
2022-08-04T01:30:21.236Z,57.55
2022-08-04T01:32:54.053Z,68.05
2022-08-04T01:35:48.269Z,59.65
2022-08-04T01:38:21.943Z,55.38
2022-08-04T01:40:55.052Z,59.47
2022-08-04T01:43:24.925Z,69.03
2022-08-04T01:46:00.687Z,58.03
2022-08-04T01:48:30.303Z,63.97
2022-08-04T01:51:01.149Z,66.35
2022-08-04T01:53:32.950Z,73.47
2022-08-04T01:56:03.785Z,79.20
2022-08-04T01:58:34.025Z,63.95
2022-08-04T02:01:08.266Z,67.22
2022-08-04T02:04:20.160Z,60.85
2022-08-04T02:06:35.812Z,68.95
2022-08-04T02:09:13.722Z,64.90
2022-08-04T02:11:44.332Z,64.60
2022-08-04T02:14:36.045Z,67.20
2022-08-04T02:17:14.796Z,67.43
2022-08-04T02:20:02.800Z,67.57
2022-08-04T02:22:35.345Z,57.88
2022-08-04T02:25:09.156Z,56.15
2022-08-04T02:27:59.158Z,56.38
2022-08-04T02:30:35.714Z,44.13
2022-08-04T02:33:09.018Z,45.38
2022-08-04T02:35:40.057Z,47.42
2022-08-04T02:38:25.551Z,51.80
2022-08-04T02:41:00.406Z,51.63
2022-08-04T02:43:50.679Z,54.60
2022-08-04T02:46:21.376Z,47.80
2022-08-04T02:48:53.239Z,55.13
2022-08-04T02:51:25.403Z,52.38
2022-08-04T02:53:57.385Z,51.63
2022-08-04T02:56:27.550Z,52.47
2022-08-04T02:59:05.021Z,49.30
2022-08-04T03:01:34.548Z,49.78
2022-08-04T03:04:24.181Z,52.70
2022-08-04T03:07:32.489Z,44.40
2022-08-04T03:10:47.666Z,40.08
2022-08-04T03:13:40.172Z,32.05
2022-08-04T03:16:34.428Z,35.30
2022-08-04T03:19:34.950Z,31.95
2022-08-04T03:22:49.143Z,34.70
2022-08-04T03:26:21.455Z,36.30
2022-08-04T03:29:35.958Z,30.23
2022-08-04T03:32:35.062Z,32.35
2022-08-04T03:35:25.111Z,32.40
2022-08-04T03:38:29.914Z,33.80
2022-08-04T03:41:51.639Z,32.97
2022-08-04T03:44:53.483Z,29.77
2022-08-04T03:48:11.196Z,30.08
2022-08-04T03:51:35.833Z,31.23
2022-08-04T03:54:31.127Z,35.60
2022-08-04T03:57:44.064Z,54.60
2022-08-04T04:00:15.573Z,81.75
2022-08-04T04:03:28.734Z,77.45
2022-08-04T04:06:40.379Z,107.50
2022-08-04T04:09:57.818Z,70.28
2022-08-04T04:13:11.117Z,86.10
2022-08-04T04:16:00.912Z,193.05
2022-08-04T04:18:53.454Z,78.90
2022-08-04T04:21:56.680Z,73.75
2022-08-04T04:24:49.861Z,82.50
2022-08-04T04:27:34.402Z,98.65
2022-08-04T04:30:07.611Z,63.95
2022-08-04T04:33:09.266Z,86.72
2022-08-04T04:35:43.585Z,73.10
2022-08-04T04:38:47.575Z,110.97
2022-08-04T04:41:34.075Z,102.78
2022-08-04T04:44:39.100Z,94.30
2022-08-04T04:47:15.826Z,75.47
2022-08-04T04:49:52.810Z,69.68
2022-08-04T04:52:30.132Z,84.35
2022-08-04T04:55:06.030Z,129.45
2022-08-04T04:57:53.839Z,185.25
2022-08-04T05:00:26.822Z,236.52
2022-08-04T05:03:13.651Z,263.67
2022-08-04T05:06:20.525Z,183.63
2022-08-04T05:09:11.734Z,271.88
2022-08-04T05:12:02.534Z,318.80
2022-08-04T05:14:41.941Z,313.85
2022-08-04T05:17:18.409Z,289.90
2022-08-04T05:20:02.098Z,172.07
2022-08-04T05:22:37.249Z,270.20
2022-08-04T05:25:10.401Z,265.48
2022-08-04T05:27:43.140Z,304.80
2022-08-04T05:30:13.212Z,317.98
2022-08-04T05:32:59.191Z,331.35
2022-08-04T05:35:37.441Z,384.70
2022-08-04T05:38:24.966Z,394.33
2022-08-04T05:40:56.141Z,308.65
2022-08-04T05:43:28.200Z,340.45
2022-08-04T05:45:58.034Z,371.55
2022-08-04T05:48:27.729Z,475.13
2022-08-04T05:51:00.920Z,492.27
2022-08-04T05:53:30.721Z,468.58
2022-08-04T05:56:00.814Z,425.75
2022-08-04T05:58:32.008Z,430.02
2022-08-04T06:01:02.187Z,368.05
2022-08-04T06:03:32.406Z,379.30
2022-08-04T06:06:02.335Z,157.05
2022-08-04T06:08:32.235Z,141.65
2022-08-04T06:11:06.347Z,117.78
2022-08-04T06:13:48.416Z,109.57
2022-08-04T06:16:29.988Z,110.95
2022-08-04T06:19:59.898Z,105.25
2022-08-04T06:21:57.021Z,501.20
2022-08-04T06:24:28.959Z,127.20
2022-08-04T06:26:58.743Z,98.78
2022-08-04T06:29:34.813Z,112.25
2022-08-04T06:32:33.762Z,106.05
2022-08-04T06:35:07.865Z,121.43
2022-08-04T06:37:42.828Z,162.68
2022-08-04T06:40:30.535Z,201.45
2022-08-04T06:43:02.607Z,190.82
2022-08-04T06:45:34.957Z,226.23
2022-08-04T06:48:05.057Z,244.77
2022-08-04T06:51:25.815Z,246.60
2022-08-04T06:53:24.401Z,294.30
2022-08-04T06:55:54.693Z,330.05
